Wildwood, Florida
Current Conditions -  °F | °C
As of 1:53 AM on Wednesday 22 Oct 2014 (Local Time) from KLEE Reporting Station
Clear Clear  
Wind Chill: 68°   Ceiling: Unl
Heat Index: 68°   Visibility: 8mi
Dew Point: 66°   Wind: 3mph
Humidity: 93%   Direction: 350°N
Pressure: 29.96"   Gusts: NA
Location:  28.87°N, 82.04°W
Report Text: KLEE 220553Z AUTO 35003KT 8SM CLR 20/19 A2996 RMK AO2 SLP143 T02000189 10233 20194 58006
Loading
Personal Weather Stations






























Interactive Weather Map
Tropical Storm Tracking
New forecast layout! Learn more

10-Day Weather Forecast

Advertisements
Track Severe Weather on mobile